createdAt,value
2023-02-17T00:01:33.674Z,23.27
2023-02-17T00:04:02.065Z,22.27
2023-02-17T00:06:32.290Z,22.98
2023-02-17T00:09:01.738Z,24.63
2023-02-17T00:11:30.292Z,22.40
2023-02-17T00:13:58.467Z,24.55
2023-02-17T00:16:27.848Z,21.30
2023-02-17T00:18:59.653Z,22.92
2023-02-17T00:21:31.134Z,18.35
2023-02-17T00:23:59.725Z,20.08
2023-02-17T00:26:27.963Z,23.58
2023-02-17T00:28:55.781Z,24.27
2023-02-17T00:31:24.305Z,23.75
2023-02-17T00:33:55.811Z,24.17
2023-02-17T00:36:24.764Z,23.75
2023-02-17T00:38:56.161Z,21.92
2023-02-17T00:41:25.252Z,28.77
2023-02-17T00:43:53.106Z,21.40
2023-02-17T00:46:24.215Z,19.02
2023-02-17T00:48:54.171Z,19.83
2023-02-17T00:51:22.222Z,20.63
2023-02-17T00:53:50.388Z,17.83
2023-02-17T00:56:18.382Z,20.75
2023-02-17T00:58:46.310Z,23.80
2023-02-17T01:01:14.465Z,19.98
2023-02-17T01:03:42.592Z,23.10
2023-02-17T01:06:23.902Z,22.17
2023-02-17T01:11:25.456Z,17.48
2023-02-17T01:13:53.797Z,20.08
2023-02-17T01:16:28.482Z,17.63
2023-02-17T01:18:59.362Z,20.45
2023-02-17T01:21:29.479Z,19.33
2023-02-17T01:24:01.208Z,20.15
2023-02-17T01:26:31.966Z,16.98
2023-02-17T01:29:03.586Z,16.98
2023-02-17T01:31:31.792Z,19.05
2023-02-17T01:34:02.865Z,20.98
2023-02-17T01:36:31.281Z,17.48
2023-02-17T01:38:59.923Z,17.55
2023-02-17T01:41:28.588Z,21.65
2023-02-17T01:44:14.196Z,18.25
2023-02-17T01:46:46.081Z,22.70
2023-02-17T01:49:39.705Z,21.17
2023-02-17T01:52:18.816Z,16.55
2023-02-17T01:54:57.800Z,20.67
2023-02-17T01:57:32.701Z,19.35
2023-02-17T02:00:00.802Z,17.15
2023-02-17T02:02:31.016Z,15.57
2023-02-17T02:04:59.345Z,14.53
2023-02-17T02:07:33.037Z,19.83
2023-02-17T02:10:01.336Z,16.13
2023-02-17T02:12:35.956Z,16.05
2023-02-17T02:15:17.257Z,13.07
2023-02-17T02:17:45.945Z,15.48
2023-02-17T02:20:29.141Z,14.32
2023-02-17T02:23:30.916Z,15.40
2023-02-17T02:26:26.311Z,11.82
2023-02-17T02:29:41.550Z,15.10
2023-02-17T02:32:48.726Z,15.35
2023-02-17T02:35:44.596Z,14.63
2023-02-17T02:38:22.286Z,16.02
2023-02-17T02:41:09.555Z,14.50
2023-02-17T02:43:38.100Z,13.77
2023-02-17T02:46:06.633Z,15.93
2023-02-17T02:48:34.896Z,18.00
2023-02-17T02:51:13.641Z,15.15
2023-02-17T02:54:16.700Z,16.23
2023-02-17T02:56:59.748Z,17.42
2023-02-17T03:00:09.053Z,16.10
2023-02-17T03:02:44.502Z,14.13
2023-02-17T03:05:33.876Z,13.73
2023-02-17T03:08:27.669Z,14.35
2023-02-17T03:10:56.349Z,14.43
2023-02-17T03:13:25.775Z,14.00
2023-02-17T03:15:53.889Z,16.13
2023-02-17T03:18:21.814Z,14.13
2023-02-17T03:20:56.915Z,13.77
2023-02-17T03:23:26.505Z,12.23
2023-02-17T03:25:54.426Z,13.27
2023-02-17T03:28:22.307Z,10.43
2023-02-17T03:30:50.321Z,13.32
2023-02-17T03:33:18.152Z,16.98
2023-02-17T03:35:45.707Z,14.27
2023-02-17T03:38:13.841Z,15.10
2023-02-17T03:40:41.648Z,13.70
2023-02-17T03:43:09.555Z,18.13
2023-02-17T03:45:37.927Z,15.25
2023-02-17T03:48:06.133Z,10.27
2023-02-17T03:50:34.001Z,11.80
2023-02-17T03:53:01.909Z,13.50
2023-02-17T03:55:29.717Z,16.05
2023-02-17T03:57:57.671Z,18.67
2023-02-17T04:00:25.633Z,15.88
2023-02-17T04:02:53.606Z,15.45
2023-02-17T04:05:21.434Z,16.10
2023-02-17T04:07:49.616Z,16.08
2023-02-17T04:10:17.873Z,15.65
2023-02-17T04:12:45.781Z,14.68
2023-02-17T04:15:13.614Z,18.27
2023-02-17T04:17:41.454Z,17.33
2023-02-17T04:20:09.906Z,16.83
2023-02-17T04:22:37.958Z,16.48
2023-02-17T04:25:06.060Z,17.17
2023-02-17T04:27:34.100Z,17.73
2023-02-17T04:30:02.047Z,18.50
2023-02-17T04:32:29.993Z,16.42
2023-02-17T04:34:57.834Z,15.13
2023-02-17T04:37:25.748Z,14.45
2023-02-17T04:39:53.927Z,20.08
2023-02-17T04:42:21.760Z,18.90
2023-02-17T04:44:49.591Z,11.40
2023-02-17T04:47:17.481Z,16.98
2023-02-17T04:49:45.365Z,15.60
2023-02-17T04:52:13.197Z,17.25
2023-02-17T04:54:41.066Z,15.18
2023-02-17T04:57:08.952Z,16.10
2023-02-17T04:59:36.868Z,14.48
2023-02-17T05:02:04.894Z,15.73
2023-02-17T05:04:34.051Z,18.88
2023-02-17T05:07:02.054Z,12.00
2023-02-17T05:09:29.919Z,12.23
2023-02-17T05:11:57.738Z,17.13
2023-02-17T05:14:25.686Z,15.32
2023-02-17T05:16:53.787Z,19.42
2023-02-17T05:19:21.668Z,11.95
2023-02-17T05:21:49.605Z,13.32
2023-02-17T05:24:17.634Z,14.07
2023-02-17T05:26:45.537Z,13.05
2023-02-17T05:29:13.665Z,8.52
2023-02-17T05:31:41.768Z,15.00
2023-02-17T05:34:09.708Z,7.72
2023-02-17T05:36:37.569Z,10.60
2023-02-17T05:39:05.520Z,13.27
2023-02-17T05:41:33.362Z,10.10
2023-02-17T05:44:01.227Z,14.57
2023-02-17T05:46:29.167Z,11.60
2023-02-17T05:48:57.137Z,13.55
2023-02-17T05:51:24.951Z,11.05
2023-02-17T05:53:52.801Z,15.27
2023-02-17T05:56:20.873Z,12.35
2023-02-17T05:58:48.701Z,9.68
2023-02-17T06:01:16.572Z,14.02
2023-02-17T06:03:44.445Z,10.18
2023-02-17T06:06:12.251Z,11.05
2023-02-17T06:08:40.632Z,14.63
2023-02-17T06:11:08.541Z,11.90
2023-02-17T06:13:36.593Z,15.65
2023-02-17T06:16:05.740Z,11.85
2023-02-17T06:18:34.017Z,14.38
2023-02-17T06:21:01.927Z,13.32
2023-02-17T06:23:29.765Z,7.93
2023-02-17T06:25:57.668Z,8.90
2023-02-17T06:28:25.641Z,10.75
2023-02-17T06:30:53.623Z,11.30
2023-02-17T06:33:21.602Z,12.90
2023-02-17T06:35:54.082Z,13.23
2023-02-17T06:38:22.156Z,9.68
2023-02-17T06:40:49.993Z,13.55
2023-02-17T06:43:17.856Z,11.80
2023-02-17T06:45:45.748Z,11.02
2023-02-17T06:48:13.669Z,11.55
2023-02-17T06:50:41.565Z,11.88
2023-02-17T06:53:09.425Z,9.75
2023-02-17T06:55:38.956Z,13.52
2023-02-17T06:58:08.215Z,9.32
2023-02-17T07:00:36.116Z,10.75
2023-02-17T07:03:04.122Z,15.23
2023-02-17T07:05:34.214Z,10.18
2023-02-17T07:08:02.408Z,15.93
2023-02-17T07:10:30.718Z,11.52
2023-02-17T07:12:58.763Z,7.78
2023-02-17T07:15:26.604Z,8.30
2023-02-17T07:17:54.519Z,8.63
2023-02-17T07:20:22.479Z,8.98
2023-02-17T07:22:50.315Z,8.82
2023-02-17T07:25:18.239Z,8.25
2023-02-17T07:27:46.103Z,10.25
2023-02-17T07:30:14.346Z,10.25
2023-02-17T07:32:42.287Z,7.20
2023-02-17T07:35:10.285Z,6.25
2023-02-17T07:37:38.190Z,12.85
2023-02-17T07:40:06.833Z,6.32
2023-02-17T07:42:34.767Z,8.57
2023-02-17T07:45:04.677Z,7.43
2023-02-17T07:47:33.207Z,6.82
2023-02-17T07:50:01.227Z,8.48
2023-02-17T07:52:29.045Z,8.88
2023-02-17T07:54:57.155Z,7.15
2023-02-17T07:57:25.200Z,6.88
2023-02-17T07:59:53.124Z,11.02
2023-02-17T08:02:21.125Z,7.60
2023-02-17T08:04:49.022Z,7.20
2023-02-17T08:07:16.890Z,5.30
2023-02-17T08:10:03.226Z,7.18
2023-02-17T08:13:09.386Z,8.07
2023-02-17T08:15:37.300Z,7.00
2023-02-17T08:18:06.336Z,8.02
2023-02-17T08:20:35.298Z,5.93
2023-02-17T08:23:03.677Z,6.35
2023-02-17T08:25:33.988Z,8.77
2023-02-17T08:28:02.765Z,6.20
2023-02-17T08:30:30.715Z,7.95
2023-02-17T08:32:58.777Z,9.80
2023-02-17T08:35:28.115Z,8.82
2023-02-17T08:37:56.016Z,6.78
2023-02-17T08:40:24.356Z,6.13
2023-02-17T08:42:52.198Z,8.68
2023-02-17T08:45:23.858Z,8.80
2023-02-17T08:47:51.854Z,8.18
2023-02-17T08:50:20.161Z,10.75
2023-02-17T08:52:48.114Z,9.10
2023-02-17T08:55:18.426Z,7.05
2023-02-17T08:57:46.325Z,6.50
2023-02-17T09:00:15.052Z,11.98
2023-02-17T09:02:45.685Z,8.90
2023-02-17T09:05:14.911Z,10.32
2023-02-17T09:07:43.030Z,15.32
2023-02-17T09:10:12.541Z,10.80
2023-02-17T09:12:41.556Z,10.65
2023-02-17T09:15:09.785Z,9.05
2023-02-17T09:17:41.666Z,12.77
2023-02-17T09:20:24.021Z,7.72
2023-02-17T09:22:52.828Z,12.98
2023-02-17T09:25:20.799Z,11.18
2023-02-17T09:27:49.101Z,14.13
2023-02-17T09:30:17.295Z,10.13
2023-02-17T09:32:45.335Z,10.60
2023-02-17T09:35:15.679Z,14.13
2023-02-17T09:37:44.248Z,12.05
2023-02-17T09:40:43.778Z,12.88
2023-02-17T09:43:18.046Z,13.43
2023-02-17T09:46:00.602Z,12.18
2023-02-17T09:48:32.341Z,8.25
2023-02-17T09:51:13.292Z,9.35
2023-02-17T09:54:35.717Z,9.93
2023-02-17T09:57:05.135Z,13.15
2023-02-17T09:59:46.633Z,10.88
2023-02-17T10:02:45.800Z,6.13
2023-02-17T10:05:17.007Z,9.60
2023-02-17T10:07:53.509Z,14.80
2023-02-17T10:10:26.451Z,9.43
2023-02-17T10:12:58.425Z,11.88
2023-02-17T10:15:34.294Z,10.77
2023-02-17T10:18:16.666Z,9.52
2023-02-17T10:21:00.058Z,10.23
2023-02-17T10:23:29.743Z,10.30
2023-02-17T10:26:16.615Z,11.82
2023-02-17T10:28:54.333Z,12.43
2023-02-17T10:31:44.315Z,13.05
2023-02-17T10:34:37.552Z,11.77
2023-02-17T10:37:27.338Z,16.13
2023-02-17T10:40:01.557Z,11.15
2023-02-17T10:42:34.822Z,8.13
2023-02-17T10:45:08.058Z,8.68
2023-02-17T10:47:37.399Z,7.93
2023-02-17T10:50:15.239Z,8.82
2023-02-17T10:52:43.499Z,8.00
2023-02-17T10:56:04.507Z,10.18
2023-02-17T10:58:59.231Z,7.03
2023-02-17T11:01:28.668Z,10.75
2023-02-17T11:04:07.151Z,11.27
2023-02-17T11:06:47.093Z,9.23
2023-02-17T11:09:28.976Z,11.85
2023-02-17T11:12:06.380Z,11.55
2023-02-17T11:14:37.558Z,11.95
2023-02-17T11:20:15.290Z,9.90
2023-02-17T11:22:48.359Z,7.00
2023-02-17T11:25:32.584Z,11.45
2023-02-17T11:28:04.590Z,8.30
2023-02-17T11:30:35.258Z,12.40
2023-02-17T11:33:22.585Z,10.43
2023-02-17T11:35:54.234Z,8.38
2023-02-17T11:38:45.288Z,11.10
2023-02-17T11:41:13.941Z,10.20
2023-02-17T11:43:59.383Z,9.20
2023-02-17T11:46:46.712Z,9.52
2023-02-17T11:49:29.610Z,8.68
2023-02-17T11:52:23.983Z,6.78
2023-02-17T11:55:11.441Z,6.80
2023-02-17T11:57:45.675Z,8.40
2023-02-17T12:00:24.708Z,11.43
2023-02-17T12:03:49.762Z,6.47
2023-02-17T12:06:57.687Z,8.82
2023-02-17T12:09:56.518Z,6.75
2023-02-17T12:12:58.492Z,9.70
2023-02-17T12:16:05.987Z,7.70
2023-02-17T12:19:05.297Z,10.48
2023-02-17T12:22:36.012Z,12.00
2023-02-17T12:25:23.026Z,10.93
2023-02-17T12:28:44.279Z,7.13
2023-02-17T12:31:50.515Z,9.35
2023-02-17T12:34:30.077Z,10.02
2023-02-17T12:37:00.282Z,8.50
2023-02-17T12:39:43.357Z,8.77
2023-02-17T12:42:36.496Z,7.28
2023-02-17T12:45:16.765Z,7.10
2023-02-17T12:48:02.012Z,6.53
2023-02-17T12:51:07.820Z,6.93
2023-02-17T12:54:17.149Z,8.00
2023-02-17T12:56:48.996Z,8.35
2023-02-17T12:59:22.790Z,6.00
2023-02-17T13:02:03.192Z,7.00
2023-02-17T13:04:32.639Z,7.05
2023-02-17T13:07:26.348Z,8.48
2023-02-17T13:09:56.436Z,8.88
2023-02-17T13:12:24.382Z,5.63
2023-02-17T13:14:56.097Z,5.22
2023-02-17T13:17:40.260Z,4.82
2023-02-17T13:20:10.778Z,6.88
2023-02-17T13:22:45.514Z,6.18
2023-02-17T13:25:30.177Z,6.32
2023-02-17T13:28:01.073Z,8.30
2023-02-17T13:30:43.328Z,6.22
2023-02-17T13:33:23.559Z,4.72
2023-02-17T13:35:51.457Z,7.03
2023-02-17T13:38:32.927Z,6.03
2023-02-17T13:41:05.715Z,5.78
2023-02-17T13:43:42.739Z,3.95
2023-02-17T13:46:24.467Z,3.53
2023-02-17T13:49:06.581Z,7.07
2023-02-17T13:51:35.366Z,4.95
2023-02-17T13:54:08.814Z,3.85
2023-02-17T13:56:36.879Z,6.95
2023-02-17T13:59:30.755Z,6.95
2023-02-17T14:01:58.709Z,5.70
2023-02-17T14:04:30.720Z,5.07
2023-02-17T14:07:01.278Z,7.35
2023-02-17T14:09:34.728Z,9.93
2023-02-17T14:12:06.035Z,5.07
2023-02-17T14:14:37.719Z,4.97
2023-02-17T14:17:13.687Z,5.18
2023-02-17T14:19:45.400Z,4.38
2023-02-17T14:22:28.598Z,4.18
2023-02-17T14:25:01.190Z,4.63
2023-02-17T14:27:29.383Z,5.22
2023-02-17T14:29:57.735Z,7.05
2023-02-17T14:32:34.740Z,7.00
2023-02-17T14:35:12.670Z,6.03
2023-02-17T14:37:43.432Z,4.90
2023-02-17T14:40:24.758Z,4.75
2023-02-17T14:42:52.718Z,7.20
2023-02-17T14:45:20.632Z,6.10
2023-02-17T14:47:48.522Z,10.38
2023-02-17T14:50:17.359Z,7.47
2023-02-17T14:52:49.448Z,8.38
2023-02-17T14:55:44.177Z,4.40
2023-02-17T14:58:20.719Z,5.60
2023-02-17T15:00:49.232Z,6.97
2023-02-17T15:03:17.454Z,7.85
2023-02-17T15:05:45.598Z,4.47
2023-02-17T15:08:18.969Z,5.55
2023-02-17T15:10:47.280Z,7.13
2023-02-17T15:13:21.457Z,8.20
2023-02-17T15:15:49.669Z,7.32
2023-02-17T15:18:19.898Z,4.53
2023-02-17T15:20:52.104Z,8.70
2023-02-17T15:23:27.345Z,4.87
2023-02-17T15:25:56.203Z,8.23
2023-02-17T15:28:24.171Z,6.30
2023-02-17T15:30:54.627Z,7.03
2023-02-17T15:33:24.819Z,6.13
2023-02-17T15:35:54.310Z,9.27
2023-02-17T15:38:23.831Z,7.20
2023-02-17T15:40:52.001Z,5.15
2023-02-17T15:43:22.676Z,5.90
2023-02-17T15:45:52.481Z,7.50
2023-02-17T15:48:26.397Z,3.88
2023-02-17T15:50:54.668Z,3.92
2023-02-17T15:53:24.624Z,4.93
2023-02-17T15:55:52.921Z,5.80
2023-02-17T15:58:22.734Z,5.55
2023-02-17T16:00:51.233Z,9.57
2023-02-17T16:03:19.383Z,4.68
2023-02-17T16:05:48.002Z,7.93
2023-02-17T16:08:15.893Z,4.53
2023-02-17T16:10:46.769Z,7.60
2023-02-17T16:13:18.909Z,5.38
2023-02-17T16:15:48.775Z,6.78
2023-02-17T16:18:22.097Z,4.45
2023-02-17T16:20:50.906Z,6.00
2023-02-17T16:23:18.995Z,4.32
2023-02-17T16:25:48.166Z,4.35
2023-02-17T16:28:19.033Z,5.85
2023-02-17T16:30:49.310Z,7.70
2023-02-17T16:33:17.553Z,9.10
2023-02-17T16:35:46.271Z,8.60
2023-02-17T16:38:23.147Z,5.20
2023-02-17T16:40:53.079Z,9.93
2023-02-17T16:43:26.717Z,9.25
2023-02-17T16:45:55.784Z,6.75
2023-02-17T16:48:26.778Z,7.32
2023-02-17T16:50:54.978Z,8.75
2023-02-17T16:53:23.303Z,5.03
2023-02-17T16:55:53.528Z,5.75
2023-02-17T16:58:24.821Z,9.32
2023-02-17T17:00:54.976Z,14.25
2023-02-17T17:03:23.189Z,7.88
2023-02-17T17:05:52.552Z,9.32
2023-02-17T17:08:22.003Z,8.63
2023-02-17T17:10:50.167Z,6.90
2023-02-17T17:13:18.224Z,7.38
2023-02-17T17:15:46.314Z,9.25
2023-02-17T17:18:21.741Z,7.53
2023-02-17T17:20:50.635Z,7.00
2023-02-17T17:23:19.078Z,7.43
2023-02-17T17:25:47.212Z,10.57
2023-02-17T17:28:17.752Z,10.95
2023-02-17T17:30:45.949Z,10.02
2023-02-17T17:33:15.679Z,7.80
2023-02-17T17:35:43.538Z,5.75
2023-02-17T17:38:15.515Z,8.10
2023-02-17T17:40:53.191Z,4.57
2023-02-17T17:43:22.913Z,3.03
2023-02-17T17:45:51.544Z,6.38
2023-02-17T17:48:19.940Z,4.68
2023-02-17T17:50:49.276Z,9.68
2023-02-17T17:53:17.353Z,6.50
2023-02-17T17:55:45.966Z,6.25
2023-02-17T17:58:15.659Z,4.22
2023-02-17T18:00:43.641Z,3.30
2023-02-17T18:03:11.607Z,7.03
2023-02-17T18:05:39.727Z,11.27
2023-02-17T18:08:08.394Z,6.78
2023-02-17T18:10:38.969Z,8.50
2023-02-17T18:13:10.252Z,3.03
2023-02-17T18:15:38.552Z,3.88
2023-02-17T18:18:06.595Z,5.38
2023-02-17T18:20:34.456Z,10.52
2023-02-17T18:23:02.300Z,10.20
2023-02-17T18:25:30.372Z,2.33
2023-02-17T18:27:58.562Z,2.05
2023-02-17T18:30:27.334Z,3.95
2023-02-17T18:32:55.383Z,2.40
2023-02-17T18:35:23.997Z,5.95
2023-02-17T18:37:51.931Z,1.75
2023-02-17T18:40:21.304Z,4.28
2023-02-17T18:42:49.297Z,1.70
2023-02-17T18:45:17.649Z,4.43
2023-02-17T18:47:46.164Z,4.20
2023-02-17T18:50:15.535Z,9.82
2023-02-17T18:52:43.938Z,5.65
2023-02-17T18:55:12.615Z,6.35
2023-02-17T18:57:40.781Z,5.05
2023-02-17T19:00:10.625Z,2.10
2023-02-17T19:02:39.334Z,4.43
2023-02-17T19:05:09.409Z,2.30
2023-02-17T19:07:37.633Z,3.95
2023-02-17T19:10:06.391Z,4.88
2023-02-17T19:12:34.500Z,4.80
2023-02-17T19:15:02.536Z,1.33
2023-02-17T19:17:30.688Z,8.35
2023-02-17T19:19:58.542Z,7.13
2023-02-17T19:22:26.416Z,12.13
2023-02-17T19:24:54.810Z,10.10
2023-02-17T19:27:23.080Z,4.60
2023-02-17T19:29:50.977Z,3.00
2023-02-17T19:32:19.480Z,4.20
2023-02-17T19:34:47.465Z,7.93
2023-02-17T19:37:15.595Z,8.45
2023-02-17T19:39:43.604Z,1.27
2023-02-17T19:42:11.464Z,1.60
2023-02-17T19:44:39.269Z,3.60
2023-02-17T19:47:07.171Z,3.25
2023-02-17T19:49:35.049Z,3.00
2023-02-17T19:52:02.884Z,6.90
2023-02-17T19:54:32.122Z,1.67
2023-02-17T19:57:00.078Z,1.58
2023-02-17T19:59:28.449Z,5.95
2023-02-17T20:01:56.462Z,5.63
2023-02-17T20:04:24.321Z,3.00
2023-02-17T20:06:53.491Z,5.20
2023-02-17T20:09:22.898Z,2.22
2023-02-17T20:11:54.169Z,4.32
2023-02-17T20:14:22.432Z,5.33
2023-02-17T20:16:53.057Z,5.18
2023-02-17T20:19:21.454Z,6.22
2023-02-17T20:21:49.476Z,6.18
2023-02-17T20:24:17.322Z,2.85
2023-02-17T20:26:47.345Z,6.82
2023-02-17T20:29:16.022Z,7.78
2023-02-17T20:31:44.243Z,2.25
2023-02-17T20:34:32.815Z,8.20
2023-02-17T20:37:01.600Z,6.85
2023-02-17T20:39:29.624Z,8.52
2023-02-17T20:41:57.519Z,2.92
2023-02-17T20:44:27.777Z,5.88
2023-02-17T20:46:57.147Z,7.05
2023-02-17T20:49:25.456Z,2.25
2023-02-17T20:51:54.870Z,1.75
2023-02-17T20:54:25.351Z,3.80
2023-02-17T20:56:53.368Z,5.57
2023-02-17T20:59:21.322Z,2.30
2023-02-17T21:01:49.827Z,6.78
2023-02-17T21:04:18.284Z,6.97
2023-02-17T21:06:47.320Z,5.32
2023-02-17T21:09:18.159Z,8.38
2023-02-17T21:11:46.757Z,4.10
2023-02-17T21:14:14.821Z,2.55
2023-02-17T21:16:42.882Z,6.53
2023-02-17T21:19:10.775Z,1.63
2023-02-17T21:21:39.160Z,17.35
2023-02-17T21:24:07.284Z,7.78
2023-02-17T21:26:35.125Z,6.68
2023-02-17T21:29:03.468Z,4.95
2023-02-17T21:31:32.339Z,4.45
2023-02-17T21:34:00.750Z,2.67
2023-02-17T21:36:29.690Z,3.17
2023-02-17T21:38:57.887Z,3.53
2023-02-17T21:41:27.543Z,7.28
2023-02-17T21:44:15.111Z,3.05
2023-02-17T21:46:44.063Z,6.43
2023-02-17T21:49:12.609Z,4.72
2023-02-17T21:51:41.422Z,6.88
2023-02-17T21:54:09.795Z,3.30
2023-02-17T21:56:38.111Z,3.83
2023-02-17T21:59:06.912Z,6.00
2023-02-17T22:01:34.925Z,6.40
2023-02-17T22:04:02.907Z,6.75
2023-02-17T22:06:36.231Z,1.38
2023-02-17T22:09:07.140Z,5.60
2023-02-17T22:11:40.143Z,2.65
2023-02-17T22:14:13.172Z,3.22
2023-02-17T22:16:41.326Z,6.03
2023-02-17T22:19:13.843Z,1.85
2023-02-17T22:21:42.943Z,4.85
2023-02-17T22:24:10.871Z,5.50
2023-02-17T22:26:38.757Z,4.30
2023-02-17T22:29:06.844Z,3.38
2023-02-17T22:31:39.113Z,4.70
2023-02-17T22:34:09.653Z,4.57
2023-02-17T22:36:38.322Z,1.63
2023-02-17T22:39:07.872Z,7.50
2023-02-17T22:41:36.072Z,4.93
2023-02-17T22:44:04.111Z,1.70
2023-02-17T22:46:34.900Z,2.25
2023-02-17T22:49:03.085Z,5.85
2023-02-17T22:51:36.176Z,6.28
2023-02-17T22:54:04.500Z,4.05
2023-02-17T22:56:32.630Z,12.98
2023-02-17T22:59:03.732Z,4.32
2023-02-17T23:01:35.531Z,4.30
2023-02-17T23:04:04.575Z,5.90
2023-02-17T23:06:35.857Z,4.32
2023-02-17T23:09:05.306Z,4.90
2023-02-17T23:11:49.768Z,1.27
2023-02-17T23:14:22.677Z,7.68
2023-02-17T23:16:51.546Z,7.20
2023-02-17T23:19:22.011Z,8.10
2023-02-17T23:21:53.911Z,4.10
2023-02-17T23:24:23.639Z,5.50
2023-02-17T23:26:52.313Z,4.13
2023-02-17T23:29:20.730Z,9.80
2023-02-17T23:31:48.664Z,4.97
2023-02-17T23:34:17.757Z,1.60
2023-02-17T23:36:46.696Z,6.82
2023-02-17T23:39:16.057Z,6.80
2023-02-17T23:41:44.235Z,5.30
2023-02-17T23:44:14.758Z,3.78
2023-02-17T23:46:44.404Z,6.15
2023-02-17T23:49:17.228Z,10.40
2023-02-17T23:51:46.928Z,8.07
2023-02-17T23:54:15.477Z,4.55
2023-02-17T23:56:43.768Z,7.13
2023-02-17T23:59:11.721Z,3.47
